createdAt,value
2022-12-27T00:00:33.899Z,8.74
2022-12-27T00:01:34.172Z,8.69
2022-12-27T00:02:34.323Z,8.71
2022-12-27T00:03:33.493Z,8.74
2022-12-27T00:04:34.036Z,8.73
2022-12-27T00:05:34.120Z,8.63
2022-12-27T00:06:34.064Z,8.7
2022-12-27T00:07:33.807Z,8.66
2022-12-27T00:08:34.088Z,8.66
2022-12-27T00:09:34.110Z,8.71
2022-12-27T00:10:34.105Z,8.71
2022-12-27T00:11:34.142Z,8.67
2022-12-27T00:12:34.144Z,8.67
2022-12-27T00:13:33.897Z,8.67
2022-12-27T00:14:34.204Z,8.69
2022-12-27T00:15:34.234Z,8.64
2022-12-27T00:16:34.626Z,8.64
2022-12-27T00:17:34.222Z,8.66
2022-12-27T00:18:33.987Z,8.67
2022-12-27T00:19:34.254Z,8.7
2022-12-27T00:20:34.280Z,8.66
2022-12-27T00:21:34.340Z,8.67
2022-12-27T00:22:34.385Z,8.6
2022-12-27T00:23:34.370Z,8.69
2022-12-27T00:24:34.343Z,8.64
2022-12-27T00:25:34.091Z,8.63
2022-12-27T00:26:34.377Z,8.66
2022-12-27T00:27:34.370Z,8.63
2022-12-27T00:28:34.389Z,8.61
2022-12-27T00:29:34.403Z,8.66
2022-12-27T00:30:33.901Z,8.64
2022-12-27T00:31:34.753Z,8.58
2022-12-27T00:32:34.187Z,8.6
2022-12-27T00:33:34.463Z,8.61
2022-12-27T00:34:34.275Z,8.64
2022-12-27T00:35:33.984Z,8.58
2022-12-27T00:36:34.509Z,8.6
2022-12-27T00:37:34.575Z,8.61
2022-12-27T00:38:34.291Z,8.61
2022-12-27T00:39:34.297Z,8.58
2022-12-27T00:40:34.578Z,8.56
2022-12-27T00:41:34.635Z,8.58
2022-12-27T00:42:34.605Z,8.58
2022-12-27T00:43:34.612Z,8.71
2022-12-27T00:44:34.399Z,8.63
2022-12-27T00:45:34.505Z,8.6
2022-12-27T00:46:34.674Z,8.66
2022-12-27T00:47:34.723Z,8.52
2022-12-27T00:48:34.710Z,8.56
2022-12-27T00:49:34.467Z,8.64
2022-12-27T00:50:34.740Z,8.56
2022-12-27T00:51:34.511Z,8.64
2022-12-27T00:52:34.772Z,8.56
2022-12-27T00:53:34.862Z,8.55
2022-12-27T00:54:34.794Z,8.63
2022-12-27T00:55:34.824Z,8.58
2022-12-27T00:56:34.830Z,8.6
2022-12-27T00:57:34.831Z,8.61
2022-12-27T00:58:38.459Z,8.61
2022-12-27T00:59:34.895Z,8.6
2022-12-27T01:00:34.887Z,8.63
2022-12-27T01:01:35.230Z,8.52
2022-12-27T01:02:34.638Z,8.69
2022-12-27T01:03:35.278Z,8.66
2022-12-27T01:04:34.931Z,8.63
2022-12-27T01:05:34.976Z,8.53
2022-12-27T01:06:34.711Z,8.55
2022-12-27T01:07:34.724Z,8.58
2022-12-27T01:08:35.012Z,8.6
2022-12-27T01:09:35.075Z,8.56
2022-12-27T01:10:35.019Z,8.52
2022-12-27T01:11:34.790Z,8.53
2022-12-27T01:12:35.076Z,8.56
2022-12-27T01:13:34.833Z,8.53
2022-12-27T01:14:34.827Z,8.6
2022-12-27T01:15:35.106Z,8.53
2022-12-27T01:16:35.440Z,8.61
2022-12-27T01:17:35.137Z,8.61
2022-12-27T01:18:35.159Z,8.6
2022-12-27T01:19:35.205Z,8.61
2022-12-27T01:20:35.182Z,8.61
2022-12-27T01:21:35.200Z,8.56
2022-12-27T01:22:34.982Z,8.56
2022-12-27T01:23:35.264Z,8.58
2022-12-27T01:24:35.247Z,8.53
2022-12-27T01:25:35.335Z,8.46
2022-12-27T01:26:35.014Z,8.45
2022-12-27T01:27:35.374Z,8.48
2022-12-27T01:28:35.300Z,8.45
2022-12-27T01:29:35.061Z,8.52
2022-12-27T01:30:35.073Z,8.42
2022-12-27T01:31:35.294Z,8.51
2022-12-27T01:32:35.116Z,8.41
2022-12-27T01:33:35.110Z,8.46
2022-12-27T01:34:35.390Z,8.48
2022-12-27T01:35:35.428Z,8.51
2022-12-27T01:36:35.426Z,8.52
2022-12-27T01:37:35.431Z,8.46
2022-12-27T01:38:35.446Z,8.52
2022-12-27T01:39:35.474Z,8.49
2022-12-27T01:40:35.233Z,8.51
2022-12-27T01:41:35.550Z,8.51
2022-12-27T01:42:35.513Z,8.48
2022-12-27T01:43:35.548Z,8.49
2022-12-27T01:44:35.560Z,8.51
2022-12-27T01:45:35.525Z,8.42
2022-12-27T01:46:35.575Z,8.49
2022-12-27T01:47:35.352Z,8.46
2022-12-27T01:48:35.333Z,8.46
2022-12-27T01:49:35.616Z,8.45
2022-12-27T01:50:35.388Z,8.37
2022-12-27T01:51:35.686Z,8.34
2022-12-27T01:52:39.756Z,8.51
2022-12-27T01:53:35.435Z,8.51
2022-12-27T01:54:35.685Z,8.37
2022-12-27T01:55:35.728Z,8.44
2022-12-27T01:56:35.722Z,8.42
2022-12-27T01:57:35.798Z,8.33
2022-12-27T01:58:35.623Z,8.51
2022-12-27T01:59:35.975Z,8.44
2022-12-27T02:00:35.752Z,8.38
2022-12-27T02:01:36.421Z,8.46
2022-12-27T02:02:36.336Z,8.33
2022-12-27T02:03:35.788Z,8.36
2022-12-27T02:04:36.052Z,8.33
2022-12-27T02:05:36.021Z,8.36
2022-12-27T02:06:35.975Z,8.36
2022-12-27T02:07:35.992Z,8.3
2022-12-27T02:08:36.017Z,8.33
2022-12-27T02:09:36.043Z,8.28
2022-12-27T02:10:35.789Z,8.31
2022-12-27T02:11:35.731Z,8.28
2022-12-27T02:12:36.008Z,8.3
2022-12-27T02:13:36.081Z,8.36
2022-12-27T02:14:36.047Z,8.3
2022-12-27T02:15:35.835Z,8.33
2022-12-27T02:16:35.695Z,8.33
2022-12-27T02:17:36.055Z,8.34
2022-12-27T02:18:36.052Z,8.28
2022-12-27T02:19:36.016Z,8.36
2022-12-27T02:20:36.087Z,8.31
2022-12-27T02:21:35.830Z,8.34
2022-12-27T02:22:35.586Z,8.31
2022-12-27T02:23:42.709Z,8.3
2022-12-27T02:24:36.127Z,8.28
2022-12-27T02:25:36.278Z,8.34
2022-12-27T02:26:36.221Z,8.27
2022-12-27T02:27:35.950Z,8.26
2022-12-27T02:28:36.203Z,8.26
2022-12-27T02:29:36.288Z,8.26
2022-12-27T02:30:36.436Z,8.26
2022-12-27T02:31:35.998Z,8.33
2022-12-27T02:32:35.990Z,8.31
2022-12-27T02:33:36.271Z,8.31
2022-12-27T02:34:36.276Z,8.27
2022-12-27T02:35:36.308Z,8.27
2022-12-27T02:36:36.311Z,8.27
2022-12-27T02:37:36.066Z,8.26
2022-12-27T02:38:36.083Z,8.2
2022-12-27T02:39:36.392Z,8.27
2022-12-27T02:40:36.160Z,8.27
2022-12-27T02:41:36.134Z,8.23
2022-12-27T02:42:36.156Z,8.27
2022-12-27T02:43:36.428Z,8.23
2022-12-27T02:44:36.179Z,8.18
2022-12-27T02:45:36.520Z,8.24
2022-12-27T02:46:36.407Z,8.23
2022-12-27T02:47:36.230Z,8.27
2022-12-27T02:48:36.513Z,8.23
2022-12-27T02:49:36.255Z,8.2
2022-12-27T02:50:36.525Z,8.19
2022-12-27T02:51:36.551Z,8.23
2022-12-27T02:52:36.561Z,8.16
2022-12-27T02:53:36.325Z,8.18
2022-12-27T02:54:36.612Z,8.15
2022-12-27T02:55:36.680Z,8.13
2022-12-27T02:56:36.622Z,8.15
2022-12-27T02:57:36.388Z,8.23
2022-12-27T02:58:36.670Z,8.09
2022-12-27T02:59:36.666Z,8.1
2022-12-27T03:00:36.451Z,8.16
2022-12-27T03:01:37.241Z,8.08
2022-12-27T03:02:37.026Z,8.13
2022-12-27T03:03:44.336Z,8.1
2022-12-27T03:04:36.741Z,8.13
2022-12-27T03:05:36.500Z,8.1
2022-12-27T03:06:36.560Z,8.15
2022-12-27T03:07:36.810Z,8.16
2022-12-27T03:08:36.793Z,8.09
2022-12-27T03:09:36.558Z,8.15
2022-12-27T03:10:36.831Z,8.09
2022-12-27T03:11:36.652Z,8.1
2022-12-27T03:12:36.888Z,8.1
2022-12-27T03:13:36.865Z,8.15
2022-12-27T03:14:36.890Z,8.15
2022-12-27T03:15:38.320Z,8.19
2022-12-27T03:16:36.924Z,8.15
2022-12-27T03:17:37.132Z,8.1
2022-12-27T03:18:36.957Z,8.1
2022-12-27T03:19:36.974Z,8.1
2022-12-27T03:20:36.993Z,8.09
2022-12-27T03:21:37.004Z,8.09
2022-12-27T03:22:37.024Z,8.13
2022-12-27T03:23:37.015Z,8.12
2022-12-27T03:24:36.786Z,8.18
2022-12-27T03:25:37.061Z,8.12
2022-12-27T03:26:37.469Z,8.08
2022-12-27T03:27:36.847Z,8.24
2022-12-27T03:28:37.125Z,8.15
2022-12-27T03:29:37.114Z,8.09
2022-12-27T03:30:37.040Z,8.1
2022-12-27T03:31:36.886Z,8.2
2022-12-27T03:32:36.912Z,8.15
2022-12-27T03:33:37.220Z,8.15
2022-12-27T03:34:37.195Z,8.1
2022-12-27T03:35:37.198Z,8.12
2022-12-27T03:36:36.975Z,8.2
2022-12-27T03:37:37.237Z,8.1
2022-12-27T03:38:36.986Z,8.1
2022-12-27T03:39:37.039Z,8.16
2022-12-27T03:40:37.283Z,8.1
2022-12-27T03:41:37.292Z,8.13
2022-12-27T03:42:37.307Z,8.13
2022-12-27T03:43:37.110Z,8.1
2022-12-27T03:44:37.336Z,8.12
2022-12-27T03:45:37.342Z,8.09
2022-12-27T03:46:37.705Z,8.13
2022-12-27T03:47:37.404Z,8.12
2022-12-27T03:48:37.398Z,8.06
2022-12-27T03:49:37.539Z,8.1
2022-12-27T03:50:37.430Z,8.1
2022-12-27T03:51:37.640Z,8.12
2022-12-27T03:52:37.460Z,8.15
2022-12-27T03:53:37.485Z,8.09
2022-12-27T03:54:36.971Z,8.08
2022-12-27T03:55:38.323Z,8.13
2022-12-27T03:56:37.512Z,8.23
2022-12-27T03:57:37.290Z,8.15
2022-12-27T03:58:37.311Z,8.15
2022-12-27T03:59:37.586Z,8.18
2022-12-27T04:00:37.592Z,8.06
2022-12-27T04:01:38.061Z,8.15
2022-12-27T04:02:38.185Z,8.09
2022-12-27T04:03:37.604Z,8.16
2022-12-27T04:04:37.719Z,8.08
2022-12-27T04:05:37.737Z,8.13
2022-12-27T04:06:37.674Z,8.08
2022-12-27T04:07:37.682Z,8.18
2022-12-27T04:08:37.738Z,8.18
2022-12-27T04:09:37.455Z,8.1
2022-12-27T04:10:37.747Z,8.1
2022-12-27T04:11:37.757Z,8.13
2022-12-27T04:12:37.800Z,8.13
2022-12-27T04:13:37.527Z,8.1
2022-12-27T04:14:37.787Z,8.1
2022-12-27T04:15:37.916Z,8.18
2022-12-27T04:16:37.567Z,8.13
2022-12-27T04:17:37.864Z,8.06
2022-12-27T04:18:37.587Z,8.13
2022-12-27T04:19:37.604Z,8.16
2022-12-27T04:20:37.884Z,8.12
2022-12-27T04:21:37.953Z,8.1
2022-12-27T04:22:37.948Z,8.06
2022-12-27T04:23:37.945Z,8.12
2022-12-27T04:24:37.974Z,8.06
2022-12-27T04:25:37.952Z,8.08
2022-12-27T04:26:38.456Z,8.12
2022-12-27T04:27:38.041Z,8.1
2022-12-27T04:28:38.031Z,8.1
2022-12-27T04:29:37.755Z,8.09
2022-12-27T04:30:38.024Z,8.09
2022-12-27T04:31:38.253Z,8.2
2022-12-27T04:32:37.819Z,8.16
2022-12-27T04:33:37.814Z,8.16
2022-12-27T04:34:38.073Z,8.15
2022-12-27T04:35:38.127Z,8.13
2022-12-27T04:36:38.106Z,8.18
2022-12-27T04:37:38.174Z,8.1
2022-12-27T04:38:38.173Z,8.13
2022-12-27T04:39:38.181Z,8.18
2022-12-27T04:40:37.938Z,8.09
2022-12-27T04:41:37.925Z,8.13
2022-12-27T04:42:38.195Z,8.09
2022-12-27T04:43:38.211Z,8.26
2022-12-27T04:44:38.230Z,8.1
2022-12-27T04:45:38.044Z,8.08
2022-12-27T04:46:38.238Z,8.08
2022-12-27T04:47:38.331Z,8.19
2022-12-27T04:48:38.292Z,8.09
2022-12-27T04:49:38.329Z,8.13
2022-12-27T04:50:38.321Z,8.12
2022-12-27T04:51:38.337Z,8.12
2022-12-27T04:52:38.378Z,8.08
2022-12-27T04:53:38.427Z,8.08
2022-12-27T04:54:38.417Z,8.09
2022-12-27T04:55:38.409Z,8.1
2022-12-27T04:56:38.418Z,8.15
2022-12-27T04:57:38.191Z,8.05
2022-12-27T04:58:38.483Z,8.08
2022-12-27T04:59:38.443Z,8.05
2022-12-27T05:00:38.482Z,8.12
2022-12-27T05:01:38.869Z,8.13
2022-12-27T05:02:39.194Z,8.18
2022-12-27T05:03:38.678Z,8.16
2022-12-27T05:04:38.286Z,8.13
2022-12-27T05:05:38.553Z,8.1
2022-12-27T05:06:38.558Z,8.1
2022-12-27T05:07:38.581Z,8.09
2022-12-27T05:08:38.592Z,8.2
2022-12-27T05:09:38.642Z,8.1
2022-12-27T05:10:38.368Z,8.09
2022-12-27T05:11:38.371Z,8.15
2022-12-27T05:12:38.387Z,8.16
2022-12-27T05:13:38.396Z,8.18
2022-12-27T05:14:38.681Z,8.08
2022-12-27T05:15:38.699Z,8.12
2022-12-27T05:16:38.768Z,8.19
2022-12-27T05:17:38.463Z,8.08
2022-12-27T05:18:38.487Z,8.16
2022-12-27T05:19:38.786Z,8.12
2022-12-27T05:20:38.550Z,8.13
2022-12-27T05:21:38.775Z,8.08
2022-12-27T05:22:38.795Z,8.1
2022-12-27T05:23:38.560Z,8.1
2022-12-27T05:24:38.563Z,8.09
2022-12-27T05:25:38.933Z,8.15
2022-12-27T05:26:39.264Z,8.16
2022-12-27T05:27:38.883Z,8.12
2022-12-27T05:28:38.880Z,8.1
2022-12-27T05:29:38.397Z,8.12
2022-12-27T05:30:38.925Z,8.1
2022-12-27T05:31:38.962Z,8.1
2022-12-27T05:32:38.960Z,8.09
2022-12-27T05:33:38.983Z,8.08
2022-12-27T05:34:39.000Z,8.1
2022-12-27T05:35:39.037Z,8.06
2022-12-27T05:36:39.022Z,8.08
2022-12-27T05:37:38.505Z,8.09
2022-12-27T05:38:39.032Z,8.06
2022-12-27T05:39:39.087Z,8.15
2022-12-27T05:40:39.094Z,8.09
2022-12-27T05:41:39.192Z,8.1
2022-12-27T05:42:38.837Z,8.1
2022-12-27T05:43:39.104Z,8.08
2022-12-27T05:44:39.116Z,8.09
2022-12-27T05:45:38.874Z,8.1
2022-12-27T05:46:39.265Z,8.1
2022-12-27T05:47:39.173Z,8.09
2022-12-27T05:48:39.187Z,8.1
2022-12-27T05:49:38.938Z,8.16
2022-12-27T05:50:39.229Z,8.08
2022-12-27T05:51:39.294Z,8.08
2022-12-27T05:52:45.639Z,8.13
2022-12-27T05:53:39.249Z,8.13
2022-12-27T05:54:39.287Z,8.15
2022-12-27T05:55:39.299Z,8.18
2022-12-27T05:56:39.299Z,8.08
2022-12-27T05:57:39.382Z,8.12
2022-12-27T05:58:39.327Z,8.08
2022-12-27T05:59:39.344Z,8.15
2022-12-27T06:00:39.389Z,8.13
2022-12-27T06:01:39.495Z,8.27
2022-12-27T06:02:40.111Z,8.2
2022-12-27T06:03:39.623Z,8.1
2022-12-27T06:04:39.425Z,8.08
2022-12-27T06:05:39.423Z,8.09
2022-12-27T06:06:39.587Z,8.12
2022-12-27T06:07:39.225Z,8.05
2022-12-27T06:08:39.483Z,8.1
2022-12-27T06:09:39.505Z,8.23
2022-12-27T06:10:39.505Z,8.06
2022-12-27T06:11:39.271Z,8.1
2022-12-27T06:12:39.545Z,8.23
2022-12-27T06:13:39.616Z,8.1
2022-12-27T06:14:39.571Z,8.16
2022-12-27T06:15:39.331Z,8.15
2022-12-27T06:16:39.746Z,8.19
2022-12-27T06:17:39.610Z,8.1
2022-12-27T06:18:39.635Z,8.12
2022-12-27T06:19:39.649Z,8.18
2022-12-27T06:20:39.139Z,8.1
2022-12-27T06:21:39.674Z,8.12
2022-12-27T06:22:39.697Z,8.23
2022-12-27T06:23:39.762Z,8.18
2022-12-27T06:24:39.459Z,8.23
2022-12-27T06:25:39.473Z,8.24
2022-12-27T06:26:39.493Z,8.09
2022-12-27T06:27:39.512Z,8.08
2022-12-27T06:28:39.522Z,8.12
2022-12-27T06:29:39.833Z,8.08
2022-12-27T06:30:41.371Z,8.13
2022-12-27T06:31:39.937Z,8.09
2022-12-27T06:32:39.837Z,8.08
2022-12-27T06:33:39.854Z,8.13
2022-12-27T06:34:39.877Z,8.23
2022-12-27T06:35:39.882Z,8.09
2022-12-27T06:36:39.637Z,8.1
2022-12-27T06:37:39.963Z,8.13
2022-12-27T06:38:39.950Z,8.12
2022-12-27T06:39:39.726Z,8.09
2022-12-27T06:40:39.981Z,8.1
2022-12-27T06:41:39.718Z,8.05
2022-12-27T06:42:39.969Z,8.16
2022-12-27T06:43:39.753Z,8.09
2022-12-27T06:44:40.043Z,8.05
2022-12-27T06:45:40.210Z,8.12
2022-12-27T06:46:39.825Z,8.19
2022-12-27T06:47:40.077Z,8.13
2022-12-27T06:48:40.142Z,8.1
2022-12-27T06:49:40.078Z,8.12
2022-12-27T06:50:39.854Z,8.09
2022-12-27T06:51:39.878Z,8.12
2022-12-27T06:52:40.142Z,8.09
2022-12-27T06:53:40.142Z,8.16
2022-12-27T06:54:40.189Z,8.13
2022-12-27T06:55:40.196Z,8.16
2022-12-27T06:56:40.200Z,8.05
2022-12-27T06:57:40.209Z,8.1
2022-12-27T06:58:40.224Z,8.1
2022-12-27T06:59:39.967Z,8.12
2022-12-27T07:00:39.993Z,8.1
2022-12-27T07:01:40.736Z,8.15
2022-12-27T07:02:40.550Z,8.1
2022-12-27T07:03:40.293Z,8.06
2022-12-27T07:04:40.348Z,8.12
2022-12-27T07:05:40.347Z,8.1
2022-12-27T07:06:40.291Z,8.12
2022-12-27T07:07:40.378Z,8.16
2022-12-27T07:08:40.418Z,8.16
2022-12-27T07:09:40.439Z,8.1
2022-12-27T07:10:40.450Z,8.09
2022-12-27T07:11:40.538Z,8.13
2022-12-27T07:12:41.910Z,8.1
2022-12-27T07:13:40.458Z,8.13
2022-12-27T07:14:40.486Z,8.1
2022-12-27T07:15:40.493Z,8.08
2022-12-27T07:16:40.824Z,8.12
2022-12-27T07:17:40.570Z,8.13
2022-12-27T07:18:40.528Z,8.18
2022-12-27T07:19:40.645Z,8.15
2022-12-27T07:20:40.022Z,8.12
2022-12-27T07:21:40.574Z,8.09
2022-12-27T07:22:40.632Z,8.1
2022-12-27T07:23:40.384Z,8.09
2022-12-27T07:24:40.608Z,8.12
2022-12-27T07:25:40.625Z,8.12
2022-12-27T07:26:40.625Z,8.1
2022-12-27T07:27:40.430Z,8.15
2022-12-27T07:28:40.458Z,8.09
2022-12-27T07:29:48.372Z,8.06
2022-12-27T07:30:40.691Z,8.15
2022-12-27T07:31:40.650Z,8.09
2022-12-27T07:32:40.735Z,8.12
2022-12-27T07:33:40.812Z,8.09
2022-12-27T07:34:40.496Z,8.09
2022-12-27T07:35:47.817Z,8.1
2022-12-27T07:36:40.528Z,8.12
2022-12-27T07:37:40.546Z,8.1
2022-12-27T07:38:40.820Z,8.1
2022-12-27T07:39:40.825Z,8.13
2022-12-27T07:40:40.588Z,8.15
2022-12-27T07:41:40.876Z,8.1
2022-12-27T07:42:40.884Z,8.09
2022-12-27T07:43:40.912Z,8.1
2022-12-27T07:44:40.668Z,8.12
2022-12-27T07:45:41.093Z,8.09
2022-12-27T07:46:40.955Z,8.15
2022-12-27T07:47:40.942Z,8.15
2022-12-27T07:48:40.996Z,8.08
2022-12-27T07:49:41.102Z,8.15
2022-12-27T07:50:41.006Z,8.08
2022-12-27T07:51:41.102Z,8.06
2022-12-27T07:52:41.042Z,8.08
2022-12-27T07:53:41.064Z,8.08
2022-12-27T07:54:40.857Z,8.09
2022-12-27T07:55:40.811Z,8.1
2022-12-27T07:56:40.813Z,8.08
2022-12-27T07:57:41.102Z,8.15
2022-12-27T07:58:41.153Z,8.06
2022-12-27T07:59:41.152Z,8.08
2022-12-27T08:00:41.150Z,8.1
2022-12-27T08:01:41.470Z,8.12
2022-12-27T08:02:41.253Z,8.1
2022-12-27T08:03:41.375Z,8.08
2022-12-27T08:04:41.210Z,8.09
2022-12-27T08:05:41.281Z,8.15
2022-12-27T08:06:41.435Z,8.13
2022-12-27T08:07:41.241Z,8.1
2022-12-27T08:08:41.288Z,8.1
2022-12-27T08:09:41.299Z,8.09
2022-12-27T08:10:41.033Z,8.05
2022-12-27T08:11:41.045Z,8.1
2022-12-27T08:12:41.329Z,8.16
2022-12-27T08:13:41.331Z,8.15
2022-12-27T08:14:41.340Z,8.15
2022-12-27T08:15:41.401Z,8.06
2022-12-27T08:16:41.538Z,8.15
2022-12-27T08:17:41.397Z,8.08
2022-12-27T08:18:41.150Z,8.16
2022-12-27T08:19:41.454Z,8.12
2022-12-27T08:20:41.457Z,8.08
2022-12-27T08:21:41.521Z,8.15
2022-12-27T08:22:41.475Z,8.15
2022-12-27T08:23:41.243Z,8.06
2022-12-27T08:24:41.520Z,8.1
2022-12-27T08:25:49.302Z,8.09
2022-12-27T08:26:41.532Z,8.15
2022-12-27T08:27:41.587Z,8.08
2022-12-27T08:28:41.581Z,8.12
2022-12-27T08:29:41.561Z,8.1
2022-12-27T08:30:41.940Z,8.08
2022-12-27T08:31:41.372Z,8.12
2022-12-27T08:32:41.360Z,8.09
2022-12-27T08:33:41.383Z,8.15
2022-12-27T08:34:41.646Z,8.15
2022-12-27T08:35:58.946Z,8.09
2022-12-27T08:37:01.224Z,8.06
2022-12-27T08:37:59.853Z,8.08
2022-12-27T08:38:59.877Z,8.09
2022-12-27T08:40:05.931Z,8.08
2022-12-27T08:40:59.619Z,8.08
2022-12-27T08:41:59.883Z,8.06
2022-12-27T08:42:59.665Z,8.12
2022-12-27T08:43:59.676Z,8.01
2022-12-27T08:44:59.669Z,8
2022-12-27T08:45:59.606Z,8.05
2022-12-27T08:46:59.980Z,8.01
2022-12-27T08:48:00.166Z,8.09
2022-12-27T08:48:59.993Z,8.09
2022-12-27T08:49:59.998Z,8.08
2022-12-27T08:50:59.760Z,8
2022-12-27T08:52:00.847Z,8.08
2022-12-27T08:53:00.116Z,8.03
2022-12-27T08:54:00.712Z,8.15
2022-12-27T08:54:59.811Z,8.08
2022-12-27T08:56:00.115Z,8.06
2022-12-27T08:57:00.117Z,8.08
2022-12-27T08:57:59.859Z,8.08
2022-12-27T08:59:00.141Z,8.05
2022-12-27T08:59:59.887Z,8.06
2022-12-27T09:01:00.390Z,8.05
2022-12-27T09:02:00.664Z,8.05
2022-12-27T09:03:00.405Z,8.08
2022-12-27T09:03:59.992Z,8
2022-12-27T09:05:00.230Z,8.09
2022-12-27T09:05:59.989Z,8.08
2022-12-27T09:07:00.469Z,8
2022-12-27T09:08:00.012Z,8.12
2022-12-27T09:09:00.385Z,8.08
2022-12-27T09:10:00.325Z,8.08
2022-12-27T09:11:00.313Z,8
2022-12-27T09:12:08.782Z,8.12
2022-12-27T09:13:00.348Z,8.1
2022-12-27T09:14:00.136Z,8.08
2022-12-27T09:15:00.119Z,8.1
2022-12-27T09:16:00.214Z,8.06
2022-12-27T09:16:59.895Z,8.08
2022-12-27T09:18:00.422Z,8.08
2022-12-27T09:19:00.504Z,8.08
2022-12-27T09:20:00.226Z,8.09
2022-12-27T09:21:00.192Z,8.05
2022-12-27T09:22:00.230Z,8.08
2022-12-27T09:23:00.509Z,8.13
2022-12-27T09:23:59.998Z,8.06
2022-12-27T09:25:00.668Z,8.08
2022-12-27T09:26:00.286Z,8.13
2022-12-27T09:27:00.551Z,8.1
2022-12-27T09:28:00.343Z,8.09
2022-12-27T09:29:00.591Z,8.1
2022-12-27T09:30:00.331Z,8.13
2022-12-27T09:31:00.233Z,8.1
2022-12-27T09:32:00.396Z,8.08
2022-12-27T09:33:00.657Z,8.09
2022-12-27T09:34:00.408Z,7.95
2022-12-27T09:35:00.442Z,8.09
2022-12-27T09:36:00.419Z,8.03
2022-12-27T09:37:00.686Z,8.12
2022-12-27T09:38:00.576Z,8.09
2022-12-27T09:39:00.721Z,8.13
2022-12-27T09:40:00.489Z,8.09
2022-12-27T09:41:00.879Z,8.03
2022-12-27T09:43:07.464Z,8.13
2022-12-27T09:43:33.071Z,7.97
2022-12-27T09:44:33.344Z,8.06
2022-12-27T09:45:33.341Z,8.1
2022-12-27T09:46:33.030Z,8.1
2022-12-27T09:47:33.377Z,8.08
2022-12-27T09:48:37.788Z,8.08
2022-12-27T09:49:33.487Z,8.09
2022-12-27T09:50:33.466Z,8.13
2022-12-27T09:51:33.435Z,8.05
2022-12-27T09:52:33.476Z,7.97
2022-12-27T09:53:33.197Z,8.08
2022-12-27T09:54:33.485Z,8.13
2022-12-27T09:55:33.495Z,8.09
2022-12-27T09:57:29.298Z,8.12
2022-12-27T09:57:39.191Z,8.12
2022-12-27T09:58:39.198Z,8.06
2022-12-27T09:59:39.232Z,8.09
2022-12-27T10:00:48.494Z,8.13
2022-12-27T10:01:39.642Z,8.09
2022-12-27T10:02:39.814Z,8.15
2022-12-27T10:03:39.037Z,8.1
2022-12-27T10:05:23.531Z,8.12
2022-12-27T10:05:39.683Z,8.15
2022-12-27T10:06:39.088Z,8.09
2022-12-27T10:07:39.541Z,8.08
2022-12-27T10:08:39.347Z,8.06
2022-12-27T10:09:39.400Z,8.05
2022-12-27T10:10:39.382Z,8.12
2022-12-27T10:11:39.433Z,8.08
2022-12-27T10:12:39.431Z,8.15
2022-12-27T10:13:39.422Z,8.09
2022-12-27T10:14:39.446Z,8.12
2022-12-27T10:15:39.849Z,8.1
2022-12-27T10:16:39.227Z,8.12
2022-12-27T10:17:39.231Z,8.08
2022-12-27T10:18:39.657Z,8.15
2022-12-27T10:19:39.285Z,8.08
2022-12-27T10:20:39.528Z,8.09
2022-12-27T10:21:39.585Z,8.1
2022-12-27T10:22:39.355Z,8.08
2022-12-27T10:23:39.593Z,8.13
2022-12-27T10:24:39.384Z,8.09
2022-12-27T10:25:39.736Z,8.12
2022-12-27T10:26:39.630Z,8.09
2022-12-27T10:27:39.397Z,8.13
2022-12-27T10:28:39.679Z,8.12
2022-12-27T10:29:39.659Z,8.09
2022-12-27T10:30:39.669Z,8.15
2022-12-27T10:31:39.684Z,8.08
2022-12-27T10:32:39.737Z,8.08
2022-12-27T10:33:39.714Z,8.09
2022-12-27T10:34:39.758Z,8.16
2022-12-27T10:35:39.753Z,8.12
2022-12-27T10:36:39.509Z,8.16
2022-12-27T10:37:39.548Z,8.15
2022-12-27T10:38:39.554Z,8.08
2022-12-27T10:39:39.823Z,8.06
2022-12-27T10:40:39.836Z,8.09
2022-12-27T10:41:39.850Z,8.12
2022-12-27T10:42:39.850Z,8.09
2022-12-27T10:43:39.908Z,8.15
2022-12-27T10:44:39.919Z,8.13
2022-12-27T10:45:39.882Z,8.15
2022-12-27T10:46:39.788Z,8.13
2022-12-27T10:47:39.667Z,8.16
2022-12-27T10:49:24.607Z,8.12
2022-12-27T10:49:39.702Z,8.13
2022-12-27T10:50:39.981Z,8.1
2022-12-27T10:51:39.760Z,8.09
2022-12-27T10:52:40.006Z,8.1
2022-12-27T10:53:39.807Z,8.1
2022-12-27T10:54:40.038Z,8.13
2022-12-27T10:55:39.800Z,8.1
2022-12-27T10:56:40.067Z,8.12
2022-12-27T10:57:40.096Z,8.12
2022-12-27T10:58:40.156Z,8.08
2022-12-27T10:59:40.292Z,8.09
2022-12-27T11:00:40.299Z,8.1
2022-12-27T11:01:40.685Z,8.12
2022-12-27T11:02:40.311Z,8.15
2022-12-27T11:03:39.916Z,8.1
2022-12-27T11:04:39.922Z,8.1
2022-12-27T11:05:40.189Z,8.1
2022-12-27T11:06:40.219Z,8.13
2022-12-27T11:07:40.220Z,8.1
2022-12-27T11:08:39.981Z,8.1
2022-12-27T11:09:43.483Z,8.13
2022-12-27T11:10:40.007Z,8.05
2022-12-27T11:11:40.305Z,8.1
2022-12-27T11:12:40.299Z,8.15
2022-12-27T11:13:40.057Z,8.13
2022-12-27T11:14:40.330Z,8.1
2022-12-27T11:15:40.395Z,8.13
2022-12-27T11:16:40.609Z,8.08
2022-12-27T11:17:40.419Z,8.05
2022-12-27T11:18:40.397Z,8.13
2022-12-27T11:19:40.415Z,8.16
2022-12-27T11:20:40.440Z,8.15
2022-12-27T11:21:40.446Z,8.1
2022-12-27T11:22:40.453Z,8.15
2022-12-27T11:23:40.470Z,8.1
2022-12-27T11:24:40.489Z,8.1
2022-12-27T11:25:40.519Z,8.08
2022-12-27T11:26:40.512Z,8.13
2022-12-27T11:27:40.517Z,8.09
2022-12-27T11:28:40.268Z,8.12
2022-12-27T11:29:40.309Z,8.08
2022-12-27T11:30:40.579Z,8.16
2022-12-27T11:31:40.749Z,8.09
2022-12-27T11:32:40.631Z,8.13
2022-12-27T11:33:40.373Z,8.12
2022-12-27T11:34:40.641Z,8.09
2022-12-27T11:35:40.632Z,8.13
2022-12-27T11:36:40.772Z,8.15
2022-12-27T11:37:40.687Z,8.16
2022-12-27T11:38:40.436Z,8.1
2022-12-27T11:39:40.723Z,8.15
2022-12-27T11:40:40.541Z,8.08
2022-12-27T11:41:40.783Z,8.15
2022-12-27T11:42:40.939Z,8.12
2022-12-27T11:43:40.753Z,8.13
2022-12-27T11:44:40.404Z,8.08
2022-12-27T11:45:40.533Z,8.09
2022-12-27T11:46:40.956Z,8.13
2022-12-27T11:47:40.883Z,8.15
2022-12-27T11:48:40.876Z,8.13
2022-12-27T11:49:40.854Z,8.13
2022-12-27T11:50:40.866Z,8.19
2022-12-27T11:51:40.641Z,8.15
2022-12-27T11:52:40.638Z,8.09
2022-12-27T11:53:40.691Z,8.16
2022-12-27T11:54:40.963Z,8.1
2022-12-27T11:55:40.730Z,8.06
2022-12-27T11:56:40.977Z,8.12
2022-12-27T11:57:40.998Z,8.1
2022-12-27T11:58:40.993Z,8.08
2022-12-27T11:59:41.212Z,8.08
2022-12-27T12:00:40.780Z,8.13
2022-12-27T12:01:41.089Z,8.1
2022-12-27T12:02:41.286Z,8.08
2022-12-27T12:03:41.182Z,8.13
2022-12-27T12:04:41.284Z,8.1
2022-12-27T12:05:41.103Z,8.1
2022-12-27T12:06:40.885Z,8.27
2022-12-27T12:07:41.324Z,8.09
2022-12-27T12:08:41.133Z,8.18
2022-12-27T12:09:41.187Z,8.08
2022-12-27T12:10:41.162Z,8.1
2022-12-27T12:11:41.176Z,8.09
2022-12-27T12:12:41.194Z,8.08
2022-12-27T12:13:41.249Z,8.13
2022-12-27T12:14:41.220Z,8.16
2022-12-27T12:15:41.238Z,8.08
2022-12-27T12:16:41.452Z,8.13
2022-12-27T12:17:41.528Z,8.15
2022-12-27T12:18:41.305Z,8.1
2022-12-27T12:19:41.324Z,8.18
2022-12-27T12:20:44.407Z,8.1
2022-12-27T12:21:41.341Z,8.1
2022-12-27T12:22:41.342Z,8.1
2022-12-27T12:23:41.361Z,8.1
2022-12-27T12:24:41.131Z,8.12
2022-12-27T12:25:41.394Z,8.06
2022-12-27T12:26:41.416Z,8.1
2022-12-27T12:27:41.166Z,8.1
2022-12-27T12:29:03.269Z,8.15
2022-12-27T12:29:41.445Z,8.08
2022-12-27T12:30:41.203Z,8.08
2022-12-27T12:31:41.623Z,8.1
2022-12-27T12:32:41.230Z,8.1
2022-12-27T12:33:41.289Z,8.1
2022-12-27T12:34:41.269Z,8.1
2022-12-27T12:35:41.568Z,8.12
2022-12-27T12:36:41.681Z,8.12
2022-12-27T12:37:41.294Z,8.15
2022-12-27T12:38:41.587Z,8.18
2022-12-27T12:39:41.328Z,8.15
2022-12-27T12:40:41.367Z,8.13
2022-12-27T12:41:41.357Z,8.13
2022-12-27T12:42:41.644Z,8.12
2022-12-27T12:43:41.701Z,8.18
2022-12-27T12:44:46.663Z,8.18
2022-12-27T12:45:41.593Z,8.13
2022-12-27T12:46:41.463Z,8.18
2022-12-27T12:47:41.733Z,8.13
2022-12-27T12:48:41.730Z,8.15
2022-12-27T12:49:41.770Z,8.12
2022-12-27T12:50:41.767Z,8.19
2022-12-27T12:51:41.798Z,8.13
2022-12-27T12:52:41.817Z,8.2
2022-12-27T12:53:41.787Z,8.19
2022-12-27T12:54:41.814Z,8.13
2022-12-27T12:55:43.545Z,8.09
2022-12-27T12:56:41.880Z,8.13
2022-12-27T12:57:41.607Z,8.16
2022-12-27T12:58:41.362Z,8.18
2022-12-27T12:59:41.943Z,8.13
2022-12-27T13:00:41.695Z,8.15
2022-12-27T13:01:48.635Z,8.18
2022-12-27T13:02:42.717Z,8.19
2022-12-27T13:03:42.161Z,8.16
2022-12-27T13:04:42.156Z,8.16
2022-12-27T13:05:41.735Z,8.15
2022-12-27T13:06:42.191Z,8.19
2022-12-27T13:07:44.661Z,8.19
2022-12-27T13:08:42.050Z,8.1
2022-12-27T13:09:42.065Z,8.15
2022-12-27T13:10:41.782Z,8.18
2022-12-27T13:11:42.080Z,8.15
2022-12-27T13:12:45.045Z,8.18
2022-12-27T13:13:41.915Z,8.23
2022-12-27T13:14:41.891Z,8.18
2022-12-27T13:15:41.917Z,8.18
2022-12-27T13:16:42.080Z,8.18
2022-12-27T13:17:42.164Z,8.19
2022-12-27T13:18:42.181Z,8.2
2022-12-27T13:19:41.937Z,8.16
2022-12-27T13:20:42.196Z,8.23
2022-12-27T13:21:42.225Z,8.15
2022-12-27T13:22:41.976Z,8.15
2022-12-27T13:23:42.297Z,8.23
2022-12-27T13:24:42.277Z,8.24